createdAt,value
2023-05-06T00:00:00.710Z,7.75
2023-05-06T00:04:55.956Z,8.52
2023-05-06T00:07:22.543Z,8.73
2023-05-06T00:09:51.309Z,8.27
2023-05-06T00:12:27.019Z,8.77
2023-05-06T00:14:53.539Z,9.75
2023-05-06T00:17:20.105Z,8.02
2023-05-06T00:19:49.525Z,8.27
2023-05-06T00:22:15.923Z,7.90
2023-05-06T00:24:43.689Z,8.13
2023-05-06T00:27:10.206Z,8.52
2023-05-06T00:29:36.939Z,8.82
2023-05-06T00:32:03.798Z,9.02
2023-05-06T00:34:32.990Z,8.13
2023-05-06T00:36:59.501Z,7.63
2023-05-06T00:39:26.692Z,7.10
2023-05-06T00:41:53.148Z,7.57
2023-05-06T00:44:19.678Z,7.28
2023-05-06T00:46:48.960Z,7.78
2023-05-06T00:49:15.399Z,8.40
2023-05-06T00:51:41.806Z,8.88
2023-05-06T00:54:08.316Z,8.75
2023-05-06T00:56:41.863Z,8.40
2023-05-06T00:59:08.283Z,8.05
2023-05-06T01:01:34.839Z,8.18
2023-05-06T01:04:01.645Z,8.68
2023-05-06T01:06:43.495Z,8.52
2023-05-06T01:09:31.869Z,7.80
2023-05-06T01:12:17.048Z,8.13
2023-05-06T01:15:08.785Z,8.05
2023-05-06T01:17:46.344Z,7.32
2023-05-06T01:20:13.355Z,7.88
2023-05-06T01:22:39.966Z,8.48
2023-05-06T01:25:06.881Z,8.32
2023-05-06T01:27:33.488Z,8.02
2023-05-06T01:30:00.744Z,7.88
2023-05-06T01:32:33.287Z,9.10
2023-05-06T01:35:17.021Z,7.65
2023-05-06T01:38:15.866Z,8.38
2023-05-06T01:40:44.264Z,8.48
2023-05-06T01:43:12.466Z,7.75
2023-05-06T01:45:40.588Z,8.60
2023-05-06T01:48:07.509Z,8.10
2023-05-06T01:50:35.339Z,8.05
2023-05-06T01:53:03.327Z,8.02
2023-05-06T01:55:29.960Z,7.97
2023-05-06T01:57:56.799Z,7.43
2023-05-06T02:00:25.032Z,8.25
2023-05-06T02:02:51.800Z,8.07
2023-05-06T02:05:18.581Z,7.45
2023-05-06T02:07:45.029Z,8.38
2023-05-06T02:10:11.568Z,8.50
2023-05-06T02:12:38.043Z,8.75
2023-05-06T02:15:04.941Z,8.02
2023-05-06T02:17:31.379Z,7.38
2023-05-06T02:19:57.843Z,8.48
2023-05-06T02:22:24.312Z,8.00
2023-05-06T02:24:58.057Z,9.07
2023-05-06T02:27:24.474Z,9.10
2023-05-06T02:29:53.376Z,8.95
2023-05-06T02:32:19.882Z,7.70
2023-05-06T02:34:53.196Z,8.50
2023-05-06T02:37:19.578Z,8.93
2023-05-06T02:39:46.003Z,7.00
2023-05-06T02:42:16.086Z,7.53
2023-05-06T02:44:42.750Z,7.32
2023-05-06T02:47:09.395Z,8.77
2023-05-06T02:49:38.545Z,7.40
2023-05-06T02:52:05.095Z,9.38
2023-05-06T02:54:31.433Z,7.65
2023-05-06T02:56:57.874Z,9.40
2023-05-06T02:59:24.339Z,8.13
2023-05-06T03:01:53.798Z,8.45
2023-05-06T03:04:21.217Z,7.88
2023-05-06T03:06:47.778Z,7.38
2023-05-06T03:09:15.517Z,8.57
2023-05-06T03:11:41.917Z,8.07
2023-05-06T03:14:08.353Z,8.98
2023-05-06T03:16:34.824Z,9.27
2023-05-06T03:19:03.616Z,9.20
2023-05-06T03:21:30.587Z,8.90
2023-05-06T03:23:57.925Z,8.02
2023-05-06T03:26:24.416Z,9.63
2023-05-06T03:28:50.931Z,8.00
2023-05-06T03:31:17.362Z,7.72
2023-05-06T03:33:43.842Z,8.07
2023-05-06T03:36:10.222Z,8.60
2023-05-06T03:38:36.922Z,9.63
2023-05-06T03:41:06.059Z,8.10
2023-05-06T03:43:32.852Z,8.23
2023-05-06T03:45:59.569Z,7.68
2023-05-06T03:48:25.990Z,7.47
2023-05-06T03:50:55.377Z,7.70
2023-05-06T03:53:21.812Z,7.97
2023-05-06T03:55:48.264Z,9.05
2023-05-06T03:58:14.627Z,8.70
2023-05-06T04:00:41.452Z,9.00
2023-05-06T04:03:07.945Z,9.85
2023-05-06T04:05:34.453Z,8.50
2023-05-06T04:08:00.859Z,9.90
2023-05-06T04:10:30.004Z,8.45
2023-05-06T04:12:56.448Z,9.30
2023-05-06T04:15:23.308Z,9.50
2023-05-06T04:17:49.694Z,10.13
2023-05-06T04:20:16.335Z,9.27
2023-05-06T04:22:42.901Z,9.60
2023-05-06T04:25:09.848Z,9.02
2023-05-06T04:27:36.542Z,8.73
2023-05-06T04:30:03.213Z,8.93
2023-05-06T04:32:34.112Z,8.23
2023-05-06T04:35:00.639Z,7.63
2023-05-06T04:37:28.276Z,9.30
2023-05-06T04:39:55.790Z,9.20
2023-05-06T04:42:22.207Z,9.38
2023-05-06T04:44:49.156Z,9.65
2023-05-06T04:47:16.381Z,10.52
2023-05-06T04:49:45.211Z,10.35
2023-05-06T04:52:11.652Z,10.18
2023-05-06T04:54:38.055Z,9.85
2023-05-06T04:57:04.577Z,10.88
2023-05-06T04:59:31.002Z,10.48
2023-05-06T05:01:57.390Z,13.18
2023-05-06T05:04:23.761Z,11.05
2023-05-06T05:06:50.221Z,13.68
2023-05-06T05:09:21.841Z,12.93
2023-05-06T05:11:48.256Z,15.10
2023-05-06T05:14:17.177Z,12.77
2023-05-06T05:16:43.680Z,16.35
2023-05-06T05:19:10.136Z,14.68
2023-05-06T05:21:38.519Z,15.43
2023-05-06T05:24:05.162Z,16.92
2023-05-06T05:26:31.705Z,16.00
2023-05-06T05:28:59.302Z,16.75
2023-05-06T05:31:25.927Z,16.50
2023-05-06T05:33:52.717Z,17.95
2023-05-06T05:36:23.109Z,17.23
2023-05-06T05:38:50.283Z,16.70
2023-05-06T05:41:17.543Z,17.02
2023-05-06T05:43:44.209Z,17.70
2023-05-06T05:46:10.792Z,15.25
2023-05-06T05:48:39.723Z,17.65
2023-05-06T05:51:06.253Z,17.25
2023-05-06T05:53:32.794Z,16.15
2023-05-06T05:55:59.235Z,16.67
2023-05-06T05:58:25.697Z,16.38
2023-05-06T06:00:57.095Z,18.38
2023-05-06T06:03:23.697Z,16.20
2023-05-06T06:05:52.781Z,17.13
2023-05-06T06:08:19.276Z,15.15
2023-05-06T06:10:46.326Z,16.83
2023-05-06T06:13:13.451Z,15.27
2023-05-06T06:15:40.379Z,16.05
2023-05-06T06:18:08.731Z,16.45
2023-05-06T06:20:35.842Z,17.25
2023-05-06T06:23:02.475Z,16.75
2023-05-06T06:25:29.009Z,14.95
2023-05-06T06:27:56.527Z,15.15
2023-05-06T06:30:23.132Z,15.77
2023-05-06T06:32:53.674Z,16.05
2023-05-06T06:35:20.644Z,17.33
2023-05-06T06:37:47.376Z,17.27
2023-05-06T06:40:14.196Z,14.98
2023-05-06T06:42:40.715Z,15.57
2023-05-06T06:45:09.209Z,14.57
2023-05-06T06:47:36.121Z,15.50
2023-05-06T06:50:03.958Z,15.07
2023-05-06T06:52:30.507Z,16.25
2023-05-06T06:54:56.855Z,17.08
2023-05-06T06:57:23.245Z,15.80
2023-05-06T06:59:52.415Z,16.17
2023-05-06T07:02:22.006Z,16.63
2023-05-06T07:04:51.155Z,13.85
2023-05-06T07:07:17.644Z,15.23
2023-05-06T07:09:44.430Z,16.67
2023-05-06T07:12:11.433Z,14.63
2023-05-06T07:14:37.971Z,16.70
2023-05-06T07:17:04.579Z,17.35
2023-05-06T07:19:33.655Z,17.33
2023-05-06T07:22:00.949Z,18.02
2023-05-06T07:24:27.401Z,14.65
2023-05-06T07:26:53.890Z,16.42
2023-05-06T07:29:20.604Z,17.50
2023-05-06T07:31:47.008Z,20.10
2023-05-06T07:34:13.549Z,18.70
2023-05-06T07:36:43.398Z,16.65
2023-05-06T07:39:12.488Z,17.88
2023-05-06T07:41:38.973Z,16.67
2023-05-06T07:44:06.700Z,18.38
2023-05-06T07:46:33.688Z,20.77
2023-05-06T07:49:00.286Z,22.10
2023-05-06T07:51:27.029Z,22.42
2023-05-06T07:54:02.595Z,18.75
2023-05-06T07:56:29.146Z,18.13
2023-05-06T07:58:56.120Z,18.52
2023-05-06T08:01:22.558Z,21.65
2023-05-06T08:03:49.108Z,18.60
2023-05-06T08:06:15.617Z,21.27
2023-05-06T08:08:42.443Z,20.02
2023-05-06T08:11:08.910Z,18.80
2023-05-06T08:13:35.281Z,20.50
2023-05-06T08:16:02.915Z,24.10
2023-05-06T08:18:30.003Z,24.95
2023-05-06T08:20:56.511Z,25.92
2023-05-06T08:23:23.146Z,25.50
2023-05-06T08:25:49.759Z,25.05
2023-05-06T08:28:17.821Z,27.88
2023-05-06T08:30:47.641Z,28.00
2023-05-06T08:33:14.461Z,26.58
2023-05-06T08:35:40.992Z,25.08
2023-05-06T08:38:07.422Z,25.08
2023-05-06T08:40:34.814Z,27.38
2023-05-06T08:43:03.339Z,26.05
2023-05-06T08:45:30.254Z,26.30
2023-05-06T08:47:56.878Z,23.88
2023-05-06T08:50:24.677Z,23.45
2023-05-06T08:52:51.836Z,24.52
2023-05-06T08:55:19.247Z,21.55
2023-05-06T08:57:49.369Z,21.92
2023-05-06T09:00:16.095Z,23.23
2023-05-06T09:02:43.444Z,21.55
2023-05-06T09:05:11.428Z,19.65
2023-05-06T09:07:40.208Z,19.45
2023-05-06T09:10:14.362Z,17.55
2023-05-06T09:12:41.584Z,16.23
2023-05-06T09:15:09.664Z,17.85
2023-05-06T09:17:36.633Z,16.88
2023-05-06T09:20:03.772Z,16.17
2023-05-06T09:22:31.190Z,17.08
2023-05-06T09:24:58.476Z,16.73
2023-05-06T09:27:29.785Z,14.82
2023-05-06T09:30:05.477Z,14.20
2023-05-06T09:32:32.744Z,11.45
2023-05-06T09:35:00.338Z,12.18
2023-05-06T09:37:27.238Z,11.77
2023-05-06T09:39:55.798Z,11.32
2023-05-06T09:42:26.797Z,12.25
2023-05-06T09:44:55.018Z,11.73
2023-05-06T09:47:23.035Z,11.48
2023-05-06T09:49:49.579Z,8.65
2023-05-06T09:52:16.399Z,6.55
2023-05-06T09:54:43.294Z,6.10
2023-05-06T09:57:10.467Z,6.90
2023-05-06T09:59:38.012Z,6.32
2023-05-06T10:02:05.868Z,6.50
2023-05-06T10:04:37.396Z,5.60
2023-05-06T10:07:05.050Z,5.15
2023-05-06T10:09:33.034Z,3.20
2023-05-06T10:12:00.829Z,5.70
2023-05-06T10:14:27.353Z,6.18
2023-05-06T10:16:54.924Z,6.53
2023-05-06T10:19:25.782Z,5.07
2023-05-06T10:22:04.441Z,5.00
2023-05-06T10:24:37.975Z,4.80
2023-05-06T10:27:06.339Z,6.00
2023-05-06T10:29:37.741Z,5.18
2023-05-06T10:34:38.292Z,5.95
2023-05-06T10:37:06.313Z,5.00
2023-05-06T10:39:33.008Z,4.38
2023-05-06T10:41:59.791Z,4.82
2023-05-06T10:45:03.080Z,4.68
2023-05-06T10:47:58.485Z,6.00
2023-05-06T10:50:27.659Z,4.97
2023-05-06T10:52:56.496Z,5.88
2023-05-06T10:55:34.480Z,5.90
2023-05-06T10:58:11.974Z,5.45
2023-05-06T11:00:38.550Z,5.32
2023-05-06T11:03:11.168Z,4.70
2023-05-06T11:05:48.968Z,5.90
2023-05-06T11:08:21.404Z,5.80
2023-05-06T11:10:47.933Z,4.93
2023-05-06T11:13:28.890Z,5.63
2023-05-06T11:15:57.470Z,5.72
2023-05-06T11:18:38.066Z,5.72
2023-05-06T11:21:30.408Z,4.82
2023-05-06T11:23:59.556Z,5.90
2023-05-06T11:26:27.307Z,5.55
2023-05-06T11:28:55.861Z,5.57
2023-05-06T11:31:22.809Z,5.15
2023-05-06T11:33:53.130Z,4.38
2023-05-06T11:36:21.398Z,3.47
2023-05-06T11:38:56.468Z,5.13
2023-05-06T11:41:23.324Z,4.90
2023-05-06T11:43:51.896Z,3.72
2023-05-06T11:46:19.404Z,4.07
2023-05-06T11:48:46.571Z,3.47
2023-05-06T11:51:13.744Z,2.97
2023-05-06T11:53:40.147Z,3.53
2023-05-06T11:56:07.788Z,3.30
2023-05-06T11:58:34.389Z,3.38
2023-05-06T12:01:02.335Z,4.03
2023-05-06T12:03:31.716Z,4.50
2023-05-06T12:05:59.473Z,4.72
2023-05-06T12:08:36.205Z,4.43
2023-05-06T12:11:05.370Z,4.28
2023-05-06T12:13:32.411Z,4.20
2023-05-06T12:15:59.958Z,4.25
2023-05-06T12:18:27.571Z,4.22
2023-05-06T12:21:00.959Z,4.43
2023-05-06T12:23:27.412Z,4.57
2023-05-06T12:26:02.795Z,4.65
2023-05-06T12:28:30.806Z,3.67
2023-05-06T12:30:57.372Z,3.50
2023-05-06T12:33:24.155Z,3.92
2023-05-06T12:35:54.780Z,3.70
2023-05-06T12:38:21.461Z,4.28
2023-05-06T12:40:54.937Z,5.35
2023-05-06T12:43:30.574Z,4.78
2023-05-06T12:46:05.094Z,4.22
2023-05-06T12:48:31.660Z,4.43
2023-05-06T12:50:58.130Z,3.67
2023-05-06T12:53:33.635Z,3.65
2023-05-06T12:56:00.186Z,5.30
2023-05-06T12:58:26.771Z,4.95
2023-05-06T13:00:53.195Z,4.07
2023-05-06T13:03:19.697Z,5.05
2023-05-06T13:05:48.217Z,5.55
2023-05-06T13:08:14.612Z,6.18
2023-05-06T13:10:40.992Z,5.65
2023-05-06T13:13:07.851Z,6.20
2023-05-06T13:15:35.632Z,6.43
2023-05-06T13:18:02.172Z,5.50
2023-05-06T13:20:28.692Z,5.57
2023-05-06T13:22:55.407Z,5.10
2023-05-06T13:25:22.336Z,5.47
2023-05-06T13:27:49.180Z,5.68
2023-05-06T13:30:15.797Z,4.75
2023-05-06T13:32:42.802Z,5.63
2023-05-06T13:35:09.895Z,5.97
2023-05-06T13:37:36.486Z,4.47
2023-05-06T13:40:03.480Z,6.57
2023-05-06T13:42:29.923Z,6.13
2023-05-06T13:44:57.475Z,6.82
2023-05-06T13:47:24.308Z,4.97
2023-05-06T13:49:51.136Z,5.13
2023-05-06T13:52:17.531Z,5.78
2023-05-06T13:54:44.882Z,6.15
2023-05-06T13:57:11.272Z,4.90
2023-05-06T13:59:37.663Z,3.88
2023-05-06T14:02:08.782Z,4.28
2023-05-06T14:07:02.532Z,3.95
2023-05-06T14:09:29.110Z,3.40
2023-05-06T14:11:58.450Z,3.40
2023-05-06T14:14:26.839Z,3.95
2023-05-06T14:16:55.125Z,4.38
2023-05-06T14:19:25.566Z,5.00
2023-05-06T14:21:52.074Z,4.00
2023-05-06T14:24:18.591Z,5.05
2023-05-06T14:26:46.172Z,4.20
2023-05-06T14:29:13.695Z,3.72
2023-05-06T14:31:40.298Z,5.18
2023-05-06T14:34:06.862Z,4.88
2023-05-06T14:36:33.474Z,4.22
2023-05-06T14:39:00.083Z,5.38
2023-05-06T14:41:26.667Z,4.15
2023-05-06T14:43:53.221Z,5.30
2023-05-06T14:46:19.848Z,4.95
2023-05-06T14:48:46.605Z,4.57
2023-05-06T14:51:13.155Z,3.85
2023-05-06T14:53:43.529Z,4.18
2023-05-06T14:56:10.918Z,4.40
2023-05-06T14:58:39.133Z,4.90
2023-05-06T15:01:05.871Z,5.13
2023-05-06T15:03:32.476Z,4.28
2023-05-06T15:05:58.935Z,4.95
2023-05-06T15:08:26.340Z,5.13
2023-05-06T15:10:53.296Z,5.75
2023-05-06T15:13:19.698Z,4.88
2023-05-06T15:15:46.138Z,5.00
2023-05-06T15:18:13.351Z,5.72
2023-05-06T15:20:40.092Z,5.63
2023-05-06T15:23:09.321Z,6.25
2023-05-06T15:25:36.659Z,6.05
2023-05-06T15:28:04.911Z,5.07
2023-05-06T15:30:36.530Z,5.95
2023-05-06T15:35:31.300Z,6.10
2023-05-06T15:37:58.938Z,5.88
2023-05-06T15:40:26.303Z,6.03
2023-05-06T15:42:52.751Z,5.70
2023-05-06T15:45:19.658Z,5.35
2023-05-06T15:47:47.984Z,5.15
2023-05-06T15:50:29.030Z,6.10
2023-05-06T15:52:59.617Z,5.60
2023-05-06T15:55:26.688Z,5.00
2023-05-06T15:57:54.543Z,4.93
2023-05-06T16:00:22.187Z,4.32
2023-05-06T16:02:48.788Z,5.38
2023-05-06T16:05:15.874Z,4.22
2023-05-06T16:07:42.524Z,4.72
2023-05-06T16:10:11.769Z,3.95
2023-05-06T16:12:38.827Z,4.35
2023-05-06T16:15:05.753Z,4.13
2023-05-06T16:17:37.459Z,4.38
2023-05-06T16:20:05.485Z,3.60
2023-05-06T16:22:34.308Z,3.60
2023-05-06T16:25:00.893Z,4.30
2023-05-06T16:27:29.919Z,2.60
2023-05-06T16:29:56.389Z,3.88
2023-05-06T16:32:23.436Z,4.03
2023-05-06T16:34:50.116Z,3.33
2023-05-06T16:37:16.697Z,3.58
2023-05-06T16:39:43.171Z,3.97
2023-05-06T16:42:09.761Z,3.75
2023-05-06T16:44:36.371Z,3.25
2023-05-06T16:47:02.933Z,3.92
2023-05-06T16:49:31.367Z,3.88
2023-05-06T16:52:00.672Z,4.90
2023-05-06T16:54:28.301Z,3.28
2023-05-06T16:56:55.047Z,3.97
2023-05-06T16:59:22.425Z,3.95
2023-05-06T17:01:49.625Z,4.50
2023-05-06T17:04:18.837Z,3.17
2023-05-06T17:06:45.673Z,5.28
2023-05-06T17:09:14.317Z,5.57
2023-05-06T17:11:40.778Z,5.10
2023-05-06T17:14:07.199Z,5.28
2023-05-06T17:16:33.691Z,5.00
2023-05-06T17:19:00.249Z,4.70
2023-05-06T17:21:27.761Z,5.18
2023-05-06T17:23:54.478Z,5.18
2023-05-06T17:26:21.890Z,5.22
2023-05-06T17:28:48.566Z,5.70
2023-05-06T17:31:16.036Z,4.57
2023-05-06T17:33:42.889Z,4.85
2023-05-06T17:36:09.349Z,5.95
2023-05-06T17:38:35.761Z,4.90
2023-05-06T17:41:02.120Z,5.32
2023-05-06T17:43:28.841Z,5.90
2023-05-06T17:45:55.893Z,8.52
2023-05-06T17:48:22.686Z,8.18
2023-05-06T17:50:49.097Z,8.57
2023-05-06T17:53:15.559Z,10.18
2023-05-06T17:55:42.038Z,11.20
2023-05-06T17:58:08.456Z,9.85
2023-05-06T18:00:34.946Z,7.75
2023-05-06T18:03:01.577Z,5.93
2023-05-06T18:05:28.153Z,6.60
2023-05-06T18:07:54.608Z,6.38
2023-05-06T18:10:21.241Z,7.97
2023-05-06T18:12:50.636Z,8.48
2023-05-06T18:15:17.188Z,8.25
2023-05-06T18:17:43.840Z,7.63
2023-05-06T18:20:10.890Z,7.95
2023-05-06T18:22:38.994Z,8.02
2023-05-06T18:25:06.369Z,6.80
2023-05-06T18:27:32.780Z,9.25
2023-05-06T18:29:59.409Z,10.77
2023-05-06T18:32:26.106Z,8.38
2023-05-06T18:34:52.591Z,9.70
2023-05-06T18:37:18.919Z,9.43
2023-05-06T18:39:45.634Z,9.57
2023-05-06T18:42:12.246Z,11.77
2023-05-06T18:44:38.711Z,11.07
2023-05-06T18:47:05.525Z,11.70
2023-05-06T18:49:32.121Z,13.27
2023-05-06T18:51:58.663Z,12.90
2023-05-06T18:54:25.177Z,12.63
2023-05-06T18:56:51.885Z,10.68
2023-05-06T18:59:20.067Z,13.00
2023-05-06T19:01:46.884Z,11.38
2023-05-06T19:04:13.654Z,11.52
2023-05-06T19:06:40.213Z,13.15
2023-05-06T19:09:08.035Z,14.48
2023-05-06T19:11:34.915Z,12.25
2023-05-06T19:14:01.530Z,11.52
2023-05-06T19:16:28.359Z,12.90
2023-05-06T19:18:54.909Z,10.98
2023-05-06T19:21:21.763Z,13.77
2023-05-06T19:23:48.274Z,12.93
2023-05-06T19:26:17.424Z,12.65
2023-05-06T19:28:44.055Z,13.90
2023-05-06T19:31:10.684Z,14.55
2023-05-06T19:33:37.851Z,14.82
2023-05-06T19:36:07.791Z,13.65
2023-05-06T19:38:34.657Z,13.85
2023-05-06T19:41:01.606Z,15.63
2023-05-06T19:43:28.062Z,13.52
2023-05-06T19:45:54.512Z,15.05
2023-05-06T19:48:22.178Z,15.05
2023-05-06T19:50:48.751Z,16.10
2023-05-06T19:53:15.348Z,16.58
2023-05-06T19:55:41.790Z,16.75
2023-05-06T19:58:08.274Z,16.73
2023-05-06T20:00:34.829Z,16.33
2023-05-06T20:03:10.475Z,17.77
2023-05-06T20:05:36.904Z,16.08
2023-05-06T20:08:03.532Z,14.90
2023-05-06T20:10:30.184Z,15.68
2023-05-06T20:12:57.766Z,16.48
2023-05-06T20:15:24.968Z,16.38
2023-05-06T20:17:51.497Z,16.05
2023-05-06T20:20:19.101Z,17.48
2023-05-06T20:22:45.582Z,18.08
2023-05-06T20:25:16.135Z,17.90
2023-05-06T20:27:43.470Z,16.50
2023-05-06T20:30:10.545Z,16.90
2023-05-06T20:32:38.153Z,17.55
2023-05-06T20:35:05.377Z,17.73
2023-05-06T20:37:33.893Z,17.17
2023-05-06T20:40:00.647Z,19.08
2023-05-06T20:42:27.706Z,18.48
2023-05-06T20:44:54.281Z,18.52
2023-05-06T20:47:20.863Z,18.38
2023-05-06T20:49:47.479Z,19.10
2023-05-06T20:52:17.434Z,17.98
2023-05-06T20:54:45.197Z,18.05
2023-05-06T20:57:13.876Z,19.30
2023-05-06T20:59:40.268Z,18.63
2023-05-06T21:02:06.767Z,18.15
2023-05-06T21:04:33.465Z,19.08
2023-05-06T21:06:59.966Z,19.13
2023-05-06T21:09:29.818Z,20.85
2023-05-06T21:12:00.870Z,21.02
2023-05-06T21:14:27.407Z,20.20
2023-05-06T21:16:53.953Z,19.73
2023-05-06T21:19:20.617Z,22.10
2023-05-06T21:21:48.675Z,19.60
2023-05-06T21:24:15.405Z,18.48
2023-05-06T21:26:41.868Z,19.83
2023-05-06T21:29:08.286Z,20.45
2023-05-06T21:31:34.969Z,19.98
2023-05-06T21:34:01.542Z,21.45
2023-05-06T21:36:27.970Z,20.83
2023-05-06T21:39:11.966Z,20.02
2023-05-06T21:41:39.305Z,19.90
2023-05-06T21:44:08.265Z,21.42
2023-05-06T21:46:34.980Z,21.38
2023-05-06T21:49:04.275Z,19.85
2023-05-06T21:51:36.009Z,21.13
2023-05-06T21:56:33.822Z,22.13
2023-05-06T21:59:00.472Z,21.08
2023-05-06T22:01:27.020Z,21.38
2023-05-06T22:03:53.959Z,21.85
2023-05-06T22:06:20.967Z,21.35
2023-05-06T22:08:47.638Z,22.15
2023-05-06T22:11:14.214Z,21.73
2023-05-06T22:13:40.718Z,21.48
2023-05-06T22:16:07.838Z,23.55
2023-05-06T22:18:36.034Z,23.27
2023-05-06T22:21:03.202Z,24.15
2023-05-06T22:23:29.759Z,21.75
2023-05-06T22:25:57.430Z,22.27
2023-05-06T22:28:24.851Z,21.92
2023-05-06T22:30:51.361Z,22.42
2023-05-06T22:33:17.734Z,23.73
2023-05-06T22:35:47.316Z,21.92
2023-05-06T22:38:16.695Z,23.52
2023-05-06T22:40:43.039Z,23.08
2023-05-06T22:43:09.466Z,20.25
2023-05-06T22:45:36.160Z,22.38
2023-05-06T22:48:02.616Z,21.02
2023-05-06T22:50:29.354Z,22.10
2023-05-06T22:52:55.835Z,22.48
2023-05-06T22:55:22.660Z,21.70
2023-05-06T22:57:53.816Z,21.33
2023-05-06T23:00:20.437Z,22.58
2023-05-06T23:02:47.260Z,22.33
2023-05-06T23:05:14.203Z,22.88
2023-05-06T23:07:41.128Z,19.60
2023-05-06T23:10:09.241Z,22.55
2023-05-06T23:12:36.010Z,22.25
2023-05-06T23:15:02.782Z,20.95
2023-05-06T23:17:29.262Z,21.20
2023-05-06T23:19:55.815Z,22.13
2023-05-06T23:22:22.385Z,21.60
2023-05-06T23:24:49.853Z,20.70
2023-05-06T23:27:16.601Z,19.55
2023-05-06T23:29:43.208Z,22.30
2023-05-06T23:32:09.712Z,19.83
2023-05-06T23:34:36.143Z,21.88
2023-05-06T23:37:02.517Z,19.63
2023-05-06T23:39:28.929Z,18.10
2023-05-06T23:41:55.366Z,18.63
2023-05-06T23:44:22.527Z,19.13
2023-05-06T23:46:48.975Z,18.40
2023-05-06T23:49:15.695Z,17.48
2023-05-06T23:51:42.093Z,17.48
2023-05-06T23:54:08.486Z,18.63
2023-05-06T23:56:34.957Z,19.13
2023-05-06T23:59:01.506Z,17.48
